createdAt,value
2023-04-26T00:01:11.578Z,100094.13
2023-04-26T00:06:08.995Z,100082.13
2023-04-26T00:11:02.119Z,100074.28
2023-04-26T00:15:55.344Z,100092.34
2023-04-26T00:20:48.609Z,100043.69
2023-04-26T00:25:43.107Z,100074.28
2023-04-26T00:30:37.775Z,100039.97
2023-04-26T00:35:31.148Z,100068.06
2023-04-26T00:40:24.224Z,100048.75
2023-04-26T00:45:18.982Z,100040.53
2023-04-26T00:50:15.237Z,100058.28
2023-04-26T00:55:09.445Z,100051.28
2023-04-26T01:00:02.620Z,100075.75
2023-04-26T01:04:57.134Z,100070.41
2023-04-26T01:09:50.959Z,100065.44
2023-04-26T01:14:45.102Z,100061.44
2023-04-26T01:19:38.327Z,100070.41
2023-04-26T01:24:36.714Z,100069.81
2023-04-26T01:29:30.480Z,100072.72
2023-04-26T01:34:23.552Z,100005.16
2023-04-26T01:39:16.906Z,100021.81
2023-04-26T01:44:11.408Z,100066.19
2023-04-26T01:49:04.678Z,100043.31
2023-04-26T01:53:58.009Z,100062.59
2023-04-26T01:58:51.625Z,100019.56
2023-04-26T02:03:46.384Z,100043.03
2023-04-26T02:08:39.674Z,100040.31
2023-04-26T02:13:32.890Z,100021.50
2023-04-26T02:18:26.902Z,100023.88
2023-04-26T02:23:21.340Z,99969.75
2023-04-26T02:28:14.576Z,100020.88
2023-04-26T02:33:08.751Z,99903.38
2023-04-26T02:38:02.314Z,99987.53
2023-04-26T02:42:57.016Z,99997.03
2023-04-26T02:47:50.496Z,100041.28
2023-04-26T02:52:43.685Z,100017.34
2023-04-26T02:57:37.005Z,100023.09
2023-04-26T03:02:34.679Z,100015.75
2023-04-26T03:07:28.449Z,99983.53
2023-04-26T03:12:21.580Z,100033.16
2023-04-26T03:17:14.802Z,100033.28
2023-04-26T03:22:09.372Z,100044.72
2023-04-26T03:27:02.708Z,100041.88
2023-04-26T03:31:56.118Z,100055.28
2023-04-26T03:36:49.315Z,100047.56
2023-04-26T03:41:44.018Z,100035.25
2023-04-26T03:46:39.252Z,100046.38
2023-04-26T03:51:32.459Z,100080.38
2023-04-26T03:56:25.829Z,100080.09
2023-04-26T04:01:21.205Z,100085.00
2023-04-26T04:06:14.395Z,100092.72
2023-04-26T04:11:09.494Z,100079.38
2023-04-26T04:16:05.002Z,99997.47
2023-04-26T04:20:59.883Z,100117.88
2023-04-26T04:25:53.135Z,100104.81
2023-04-26T04:30:47.427Z,100122.25
2023-04-26T04:35:43.483Z,100123.09
2023-04-26T04:40:38.577Z,100133.47
2023-04-26T04:45:31.829Z,100089.78
2023-04-26T04:50:26.707Z,100099.56
2023-04-26T04:55:20.156Z,100126.59
2023-04-26T05:00:16.037Z,100091.34
2023-04-26T05:05:16.923Z,100139.41
2023-04-26T05:10:11.213Z,100104.69
2023-04-26T05:15:04.938Z,100076.97
2023-04-26T05:20:06.515Z,100036.44
2023-04-26T05:25:00.144Z,100087.69
2023-04-26T05:29:53.277Z,100111.81
2023-04-26T05:35:07.164Z,100101.91
2023-04-26T05:40:00.626Z,100107.16
2023-04-26T05:44:58.726Z,100109.56
2023-04-26T05:49:51.895Z,100028.88
2023-04-26T05:54:46.589Z,99952.59
2023-04-26T05:59:39.979Z,100117.59
2023-04-26T06:04:34.539Z,100116.88
2023-04-26T06:09:34.531Z,100108.84
2023-04-26T06:14:30.415Z,100049.59
2023-04-26T06:19:29.176Z,100082.19
2023-04-26T06:24:22.711Z,100077.81
2023-04-26T06:29:19.463Z,100106.06
2023-04-26T06:34:14.565Z,100111.59
2023-04-26T06:39:08.241Z,100088.94
2023-04-26T06:44:01.704Z,100089.47
2023-04-26T06:48:57.646Z,100112.19
2023-04-26T06:53:53.689Z,100034.66
2023-04-26T06:59:00.964Z,100097.53
2023-04-26T07:03:54.300Z,100036.66
2023-04-26T07:08:47.808Z,100092.59
2023-04-26T07:13:42.604Z,100102.28
2023-04-26T07:18:36.152Z,100081.00
2023-04-26T07:23:31.211Z,100078.75
2023-04-26T07:28:24.589Z,100129.66
2023-04-26T07:33:19.275Z,100137.84
2023-04-26T07:38:14.683Z,100028.28
2023-04-26T07:43:07.901Z,100082.31
2023-04-26T07:48:01.334Z,100103.00
2023-04-26T07:52:56.009Z,100031.16
2023-04-26T07:57:49.195Z,100082.09
2023-04-26T08:02:44.633Z,100129.97
2023-04-26T08:07:38.057Z,100127.41
2023-04-26T08:12:37.659Z,100008.34
2023-04-26T08:17:31.499Z,100137.63
2023-04-26T08:22:24.778Z,99994.72
2023-04-26T08:27:23.765Z,100011.06
2023-04-26T08:32:18.546Z,99969.16
2023-04-26T08:37:12.475Z,100125.44
2023-04-26T08:42:09.025Z,100088.25
2023-04-26T08:47:09.927Z,100096.09
2023-04-26T08:52:05.972Z,100029.53
2023-04-26T08:57:00.889Z,100115.50
2023-04-26T09:01:55.037Z,100071.88
2023-04-26T09:06:51.019Z,100102.94
2023-04-26T09:11:56.778Z,100094.06
2023-04-26T09:16:52.165Z,100062.72
2023-04-26T09:21:50.532Z,100021.34
2023-04-26T09:26:43.869Z,100083.03
2023-04-26T09:31:42.222Z,100037.56
2023-04-26T09:36:51.680Z,100113.81
2023-04-26T09:41:45.863Z,100106.91
2023-04-26T09:46:40.850Z,100108.50
2023-04-26T09:51:34.154Z,100090.22
2023-04-26T09:56:27.397Z,99965.03
2023-04-26T10:01:23.540Z,100106.81
2023-04-26T10:06:21.600Z,99971.84
2023-04-26T10:11:15.609Z,100022.09
2023-04-26T10:16:11.001Z,100068.81
2023-04-26T10:21:11.831Z,100096.78
2023-04-26T10:26:07.721Z,100028.06
2023-04-26T10:31:01.669Z,100035.88
2023-04-26T10:36:09.276Z,100061.06
2023-04-26T10:41:36.176Z,100100.78
2023-04-26T10:46:40.959Z,100097.94
2023-04-26T10:51:35.578Z,100095.66
2023-04-26T10:56:55.283Z,100093.03
2023-04-26T11:01:48.569Z,100084.09
2023-04-26T11:06:52.398Z,100090.03
2023-04-26T11:11:54.935Z,100079.44
2023-04-26T11:16:48.371Z,100039.34
2023-04-26T11:21:42.013Z,100009.34
2023-04-26T11:26:39.815Z,100083.47
2023-04-26T11:31:36.599Z,100031.91
2023-04-26T11:36:30.130Z,100084.78
2023-04-26T11:41:29.028Z,100064.56
2023-04-26T11:46:24.079Z,99982.06
2023-04-26T11:51:19.274Z,100053.31
2023-04-26T11:56:17.300Z,100013.44
2023-04-26T12:01:10.612Z,99989.13
2023-04-26T12:06:06.632Z,100064.69
2023-04-26T12:11:04.678Z,100043.28
2023-04-26T12:16:26.160Z,100054.31
2023-04-26T12:21:21.120Z,100029.44
2023-04-26T12:26:16.614Z,99933.09
2023-04-26T12:31:11.952Z,99955.53
2023-04-26T12:36:12.686Z,100055.41
2023-04-26T12:41:13.123Z,100030.41
2023-04-26T12:46:07.916Z,100037.34
2023-04-26T12:51:01.514Z,100043.03
2023-04-26T12:55:57.064Z,99924.25
2023-04-26T13:00:51.335Z,99980.16
2023-04-26T13:05:46.442Z,100053.19
2023-04-26T13:10:40.194Z,100048.03
2023-04-26T13:15:33.620Z,100058.78
2023-04-26T13:20:28.946Z,100007.19
2023-04-26T13:25:24.954Z,99963.03
2023-04-26T13:30:18.246Z,100052.41
2023-04-26T13:35:15.408Z,100062.44
2023-04-26T13:40:11.405Z,99941.63
2023-04-26T13:45:09.572Z,100041.63
2023-04-26T13:50:03.089Z,100061.88
2023-04-26T13:54:56.416Z,100004.84
2023-04-26T13:59:49.680Z,100067.91
2023-04-26T14:04:44.618Z,100032.44
2023-04-26T14:09:38.145Z,100039.47
2023-04-26T14:14:31.268Z,100073.78
2023-04-26T14:19:26.248Z,100015.69
2023-04-26T14:24:23.512Z,100075.31
2023-04-26T14:29:16.797Z,100080.91
2023-04-26T14:34:09.947Z,100046.91
2023-04-26T14:39:03.176Z,100044.09
2023-04-26T14:43:57.705Z,100036.16
2023-04-26T14:48:50.869Z,100030.69
2023-04-26T14:53:44.041Z,100083.00
2023-04-26T14:58:37.180Z,100081.81
2023-04-26T15:03:34.736Z,100062.66
2023-04-26T15:08:28.025Z,100136.28
2023-04-26T15:13:21.100Z,100142.78
2023-04-26T15:18:14.412Z,100149.63
2023-04-26T15:23:09.043Z,100163.88
2023-04-26T15:28:02.244Z,100169.75
2023-04-26T15:32:55.352Z,100162.75
2023-04-26T15:37:49.655Z,100165.53
2023-04-26T15:42:44.269Z,100154.47
2023-04-26T15:47:38.049Z,100203.63
2023-04-26T15:52:31.208Z,100189.56
2023-04-26T15:57:24.590Z,100093.06
2023-04-26T16:02:19.235Z,100246.63
2023-04-26T16:07:12.375Z,100267.63
2023-04-26T16:12:06.149Z,100269.34
2023-04-26T16:17:00.004Z,100158.50
2023-04-26T16:21:54.558Z,100282.06
2023-04-26T16:26:53.222Z,100241.91
2023-04-26T16:31:46.401Z,100297.75
2023-04-26T16:36:39.765Z,100272.97
2023-04-26T16:41:34.631Z,100312.28
2023-04-26T16:46:28.536Z,100320.31
2023-04-26T16:51:21.757Z,100322.28
2023-04-26T16:56:14.985Z,100279.03
2023-04-26T17:01:09.538Z,100325.34
2023-04-26T17:06:02.713Z,100329.53
2023-04-26T17:10:55.827Z,100345.81
2023-04-26T17:15:49.352Z,100342.25
2023-04-26T17:20:44.087Z,100347.50
2023-04-26T17:25:37.470Z,100370.94
2023-04-26T17:30:30.791Z,100339.25
2023-04-26T17:35:24.313Z,100358.16
2023-04-26T17:40:19.801Z,100352.75
2023-04-26T17:45:14.139Z,100403.88
2023-04-26T17:50:08.959Z,100421.78
2023-04-26T17:55:02.360Z,100425.09
2023-04-26T17:59:57.206Z,100435.53
2023-04-26T18:04:50.541Z,100434.66
2023-04-26T18:09:43.938Z,100467.78
2023-04-26T18:14:44.358Z,100476.03
2023-04-26T18:19:39.078Z,100455.75
2023-04-26T18:24:32.278Z,100505.41
2023-04-26T18:29:25.498Z,100461.63
2023-04-26T18:34:18.900Z,100511.72
2023-04-26T18:39:13.574Z,100541.69
2023-04-26T18:44:10.709Z,100548.25
2023-04-26T18:49:04.702Z,100493.28
2023-04-26T18:53:57.992Z,100490.56
2023-04-26T18:58:52.894Z,100528.94
2023-04-26T19:03:49.506Z,100439.94
2023-04-26T19:08:43.510Z,100544.59
2023-04-26T19:13:36.933Z,100590.78
2023-04-26T19:18:36.164Z,100565.78
2023-04-26T19:23:29.544Z,100604.38
2023-04-26T19:28:25.550Z,100545.06
2023-04-26T19:33:19.093Z,100617.50
2023-04-26T19:38:13.993Z,100621.69
2023-04-26T19:43:07.271Z,100627.13
2023-04-26T19:48:00.576Z,100635.81
2023-04-26T19:52:54.862Z,100637.34
2023-04-26T19:57:52.110Z,100648.47
2023-04-26T20:02:45.625Z,100662.13
2023-04-26T20:07:38.984Z,100625.34
2023-04-26T20:12:32.557Z,100666.81
2023-04-26T20:17:27.206Z,100632.78
2023-04-26T20:22:21.146Z,100655.28
2023-04-26T20:27:14.324Z,100689.50
2023-04-26T20:32:07.536Z,100629.16
2023-04-26T20:37:02.180Z,100502.31
2023-04-26T20:41:55.930Z,100694.19
2023-04-26T20:46:49.130Z,100692.97
2023-04-26T20:51:42.530Z,100653.63
2023-04-26T20:56:37.108Z,100554.31
2023-04-26T21:01:33.892Z,100710.66
2023-04-26T21:06:27.270Z,100706.38
2023-04-26T21:11:20.681Z,100702.31
2023-04-26T21:16:15.295Z,100643.75
2023-04-26T21:21:12.276Z,100708.69
2023-04-26T21:26:05.925Z,100674.09
2023-04-26T21:31:18.305Z,100716.00
2023-04-26T21:36:15.351Z,100604.34
2023-04-26T21:41:11.668Z,100706.19
2023-04-26T21:46:06.567Z,100685.28
2023-04-26T21:51:05.715Z,100743.53
2023-04-26T21:56:16.232Z,100727.25
2023-04-26T22:01:12.314Z,100755.00
2023-04-26T22:06:08.319Z,100750.19
2023-04-26T22:11:02.744Z,100741.13
2023-04-26T22:15:56.092Z,100774.28
2023-04-26T22:20:51.270Z,100793.53
2023-04-26T22:25:45.823Z,100770.19
2023-04-26T22:30:39.133Z,100764.41
2023-04-26T22:35:32.459Z,100775.00
2023-04-26T22:40:28.869Z,100775.13
2023-04-26T22:45:23.909Z,100807.22
2023-04-26T22:50:17.191Z,100769.00
2023-04-26T22:55:11.129Z,100819.53
2023-04-26T23:00:05.772Z,100823.06
2023-04-26T23:05:00.754Z,100735.59
2023-04-26T23:09:54.193Z,100811.22
2023-04-26T23:14:47.934Z,100758.41
2023-04-26T23:19:41.338Z,100819.78
2023-04-26T23:24:35.911Z,100837.59
2023-04-26T23:29:29.252Z,100739.28
2023-04-26T23:34:22.653Z,100697.78
2023-04-26T23:39:15.971Z,100845.16
2023-04-26T23:44:10.833Z,100844.50
2023-04-26T23:49:04.071Z,100844.72
2023-04-26T23:53:57.450Z,100850.94
2023-04-26T23:58:50.771Z,100696.81
